createdAt,value
2023-03-26T00:01:24.610Z,15.55
2023-03-26T00:03:54.677Z,14.27
2023-03-26T00:06:25.939Z,14.02
2023-03-26T00:08:54.858Z,15.35
2023-03-26T00:11:24.491Z,16.88
2023-03-26T00:13:57.051Z,13.82
2023-03-26T00:16:26.428Z,17.58
2023-03-26T00:18:54.642Z,18.33
2023-03-26T00:21:27.680Z,12.40
2023-03-26T00:23:56.491Z,21.20
2023-03-26T00:26:24.594Z,18.02
2023-03-26T00:28:54.747Z,19.05
2023-03-26T00:31:23.257Z,22.13
2023-03-26T00:33:54.377Z,21.45
2023-03-26T00:36:25.536Z,19.60
2023-03-26T00:38:54.377Z,22.77
2023-03-26T00:41:25.705Z,24.10
2023-03-26T00:43:57.483Z,21.45
2023-03-26T00:46:26.777Z,23.23
2023-03-26T00:48:58.656Z,21.48
2023-03-26T00:51:28.366Z,26.45
2023-03-26T00:53:58.056Z,19.77
2023-03-26T00:56:27.004Z,25.75
2023-03-26T00:58:57.755Z,24.38
2023-03-26T01:01:29.104Z,24.30
2023-03-26T01:04:07.435Z,21.65
2023-03-26T01:06:42.259Z,18.20
2023-03-26T01:09:16.040Z,21.05
2023-03-26T01:11:45.253Z,26.75
2023-03-26T01:14:17.942Z,26.02
2023-03-26T01:19:22.867Z,29.02
2023-03-26T01:21:50.948Z,28.30
2023-03-26T01:24:20.824Z,24.85
2023-03-26T01:27:02.095Z,27.95
2023-03-26T01:29:33.702Z,22.95
2023-03-26T01:32:11.212Z,31.95
2023-03-26T01:34:52.251Z,29.02
2023-03-26T01:37:27.206Z,33.63
2023-03-26T01:40:05.440Z,28.23
2023-03-26T01:42:38.595Z,26.38
2023-03-26T01:45:13.051Z,22.00
2023-03-26T01:47:43.505Z,29.30
2023-03-26T01:50:12.447Z,29.45
2023-03-26T01:52:40.846Z,32.10
2023-03-26T01:55:12.753Z,23.73
2023-03-26T01:57:53.357Z,28.42
2023-03-26T02:00:29.576Z,27.90
2023-03-26T02:03:17.674Z,22.42
2023-03-26T02:05:53.792Z,28.50
2023-03-26T02:08:25.401Z,31.45
2023-03-26T02:10:58.845Z,25.73
2023-03-26T02:13:27.935Z,32.38
2023-03-26T02:15:58.135Z,27.80
2023-03-26T02:18:36.294Z,34.33
2023-03-26T02:21:09.958Z,27.35
2023-03-26T02:23:38.565Z,26.90
2023-03-26T02:26:09.221Z,29.05
2023-03-26T02:28:38.329Z,30.25
2023-03-26T02:31:09.686Z,26.35
2023-03-26T02:33:38.417Z,27.70
2023-03-26T02:36:08.665Z,30.63
2023-03-26T02:38:36.929Z,28.98
2023-03-26T02:41:06.404Z,24.95
2023-03-26T02:43:37.088Z,29.38
2023-03-26T02:46:05.830Z,27.83
2023-03-26T02:48:34.773Z,29.40
2023-03-26T02:51:02.825Z,33.88
2023-03-26T02:53:33.171Z,32.47
2023-03-26T02:56:01.862Z,28.73
2023-03-26T02:58:30.202Z,26.02
2023-03-26T03:00:59.702Z,28.70
2023-03-26T03:03:30.043Z,31.23
2023-03-26T03:05:58.802Z,31.13
2023-03-26T03:08:29.325Z,34.60
2023-03-26T03:10:59.027Z,33.95
2023-03-26T03:13:27.124Z,33.28
2023-03-26T03:15:59.111Z,36.83
2023-03-26T03:18:27.217Z,28.63
2023-03-26T03:20:55.271Z,32.42
2023-03-26T03:23:23.319Z,29.70
2023-03-26T03:25:52.688Z,33.58
2023-03-26T03:28:21.038Z,35.83
2023-03-26T03:30:49.160Z,30.73
2023-03-26T03:33:20.422Z,34.83
2023-03-26T03:35:49.654Z,29.92
2023-03-26T03:38:18.200Z,35.22
2023-03-26T03:40:49.985Z,27.50
2023-03-26T03:43:18.091Z,32.15
2023-03-26T03:45:47.574Z,37.45
2023-03-26T03:48:19.941Z,28.58
2023-03-26T03:50:48.131Z,24.52
2023-03-26T03:53:16.491Z,29.40
2023-03-26T03:55:53.005Z,27.73
2023-03-26T03:58:22.347Z,30.42
2023-03-26T04:00:53.610Z,29.40
2023-03-26T04:03:34.132Z,29.00
2023-03-26T04:06:02.730Z,29.48
2023-03-26T04:08:30.793Z,27.35
2023-03-26T04:10:58.913Z,30.35
2023-03-26T04:13:27.226Z,26.98
2023-03-26T04:15:55.696Z,22.45
2023-03-26T04:18:27.824Z,27.77
2023-03-26T04:20:55.915Z,30.00
2023-03-26T04:23:24.425Z,23.30
2023-03-26T04:25:56.390Z,23.67
2023-03-26T04:28:30.436Z,26.05
2023-03-26T04:31:02.080Z,21.50
2023-03-26T04:33:34.106Z,25.85
2023-03-26T04:36:03.437Z,26.85
2023-03-26T04:38:33.694Z,22.55
2023-03-26T04:41:04.528Z,23.42
2023-03-26T04:43:35.571Z,26.88
2023-03-26T04:46:04.668Z,27.90
2023-03-26T04:48:34.098Z,29.30
2023-03-26T04:51:07.280Z,22.70
2023-03-26T04:53:36.521Z,19.92
2023-03-26T04:56:10.343Z,23.92
2023-03-26T04:58:38.386Z,21.65
2023-03-26T05:01:09.784Z,25.60
2023-03-26T05:03:41.502Z,21.88
2023-03-26T05:06:12.831Z,20.75
2023-03-26T05:08:42.005Z,24.30
2023-03-26T05:11:12.943Z,21.77
2023-03-26T05:13:42.865Z,20.58
2023-03-26T05:16:12.575Z,26.30
2023-03-26T05:18:42.094Z,24.83
2023-03-26T05:21:10.875Z,25.45
2023-03-26T05:23:38.917Z,26.27
2023-03-26T05:26:08.315Z,26.08
2023-03-26T05:28:36.380Z,23.55
2023-03-26T05:31:05.517Z,25.83
2023-03-26T05:33:33.607Z,24.90
2023-03-26T05:36:04.608Z,26.25
2023-03-26T05:38:32.957Z,26.38
2023-03-26T05:41:01.722Z,21.70
2023-03-26T05:43:30.444Z,22.33
2023-03-26T05:45:58.642Z,30.17
2023-03-26T05:48:27.670Z,25.98
2023-03-26T05:50:57.693Z,22.70
2023-03-26T05:53:28.506Z,22.33
2023-03-26T05:55:58.134Z,21.15
2023-03-26T05:58:26.761Z,22.10
2023-03-26T06:00:59.440Z,25.15
2023-03-26T06:05:58.720Z,19.08
2023-03-26T06:08:28.291Z,20.63
2023-03-26T06:11:00.792Z,19.17
2023-03-26T06:13:28.999Z,25.33
2023-03-26T06:15:57.939Z,27.83
2023-03-26T06:18:26.236Z,21.35
2023-03-26T06:20:54.551Z,29.30
2023-03-26T06:23:23.443Z,23.45
2023-03-26T06:25:53.013Z,25.73
2023-03-26T06:28:21.132Z,17.85
2023-03-26T06:30:49.451Z,22.23
2023-03-26T06:33:17.740Z,23.52
2023-03-26T06:35:46.840Z,24.25
2023-03-26T06:38:15.049Z,19.52
2023-03-26T06:40:43.027Z,21.48
2023-03-26T06:43:12.627Z,25.55
2023-03-26T06:45:40.840Z,20.70
2023-03-26T06:48:08.983Z,27.38
2023-03-26T06:50:37.132Z,24.17
2023-03-26T06:53:05.161Z,18.88
2023-03-26T06:55:35.500Z,25.33
2023-03-26T06:58:03.591Z,23.42
2023-03-26T07:00:32.989Z,25.42
2023-03-26T07:03:01.098Z,25.10
2023-03-26T07:05:29.281Z,25.50
2023-03-26T07:07:57.344Z,21.08
2023-03-26T07:10:25.372Z,24.35
2023-03-26T07:12:54.590Z,19.35
2023-03-26T07:15:22.697Z,20.50
2023-03-26T07:17:52.245Z,22.48
2023-03-26T07:20:20.490Z,24.10
2023-03-26T07:22:49.193Z,29.52
2023-03-26T07:25:18.829Z,29.70
2023-03-26T07:28:00.897Z,17.17
2023-03-26T07:30:39.794Z,25.13
2023-03-26T07:33:17.149Z,21.73
2023-03-26T07:35:54.846Z,28.90
2023-03-26T07:38:38.152Z,21.85
2023-03-26T07:41:12.425Z,19.10
2023-03-26T07:44:01.307Z,17.10
2023-03-26T07:46:34.045Z,28.00
2023-03-26T07:51:33.989Z,25.35
2023-03-26T07:54:04.238Z,24.92
2023-03-26T07:56:38.882Z,21.70
2023-03-26T07:59:24.397Z,30.85
2023-03-26T08:02:14.286Z,26.60
2023-03-26T08:05:00.812Z,22.52
2023-03-26T08:07:41.382Z,26.13
2023-03-26T08:10:17.540Z,19.98
2023-03-26T08:12:56.271Z,27.23
2023-03-26T08:15:30.737Z,18.27
2023-03-26T08:18:06.497Z,21.00
2023-03-26T08:20:43.613Z,24.48
2023-03-26T08:23:22.061Z,20.02
2023-03-26T08:26:02.488Z,27.40
2023-03-26T08:28:50.695Z,24.98
2023-03-26T08:31:32.977Z,18.90
2023-03-26T08:36:33.566Z,20.95
2023-03-26T08:39:01.626Z,18.92
2023-03-26T08:42:03.094Z,22.63
2023-03-26T08:45:07.407Z,19.70
2023-03-26T08:48:20.791Z,16.27
2023-03-26T08:51:24.632Z,17.98
2023-03-26T08:54:43.805Z,18.33
2023-03-26T08:57:34.466Z,14.80
2023-03-26T09:00:26.623Z,14.45
2023-03-26T09:03:30.422Z,15.57
2023-03-26T09:06:37.616Z,16.83
2023-03-26T09:09:33.643Z,14.48
2023-03-26T09:12:46.080Z,18.77
2023-03-26T09:16:10.749Z,12.80
2023-03-26T09:19:15.174Z,13.68
2023-03-26T09:22:18.529Z,15.40
2023-03-26T09:28:11.490Z,14.27
2023-03-26T09:31:13.990Z,14.75
2023-03-26T09:33:57.222Z,16.20
2023-03-26T09:36:55.572Z,17.02
2023-03-26T09:39:37.887Z,12.90
2023-03-26T09:42:17.397Z,14.02
2023-03-26T09:45:31.067Z,11.48
2023-03-26T09:48:27.623Z,14.30
2023-03-26T09:51:07.442Z,12.70
2023-03-26T09:53:51.835Z,14.85
2023-03-26T09:56:30.861Z,13.07
2023-03-26T09:59:26.198Z,13.95
2023-03-26T10:02:10.047Z,13.55
2023-03-26T10:05:16.421Z,18.00
2023-03-26T10:08:00.114Z,16.20
2023-03-26T10:10:34.946Z,14.18
2023-03-26T10:13:15.696Z,14.10
2023-03-26T10:15:59.607Z,12.18
2023-03-26T10:18:40.109Z,14.45
2023-03-26T10:21:12.509Z,13.65
2023-03-26T10:24:07.511Z,10.82
2023-03-26T10:27:09.190Z,13.25
2023-03-26T10:30:13.653Z,15.05
2023-03-26T10:32:53.090Z,16.40
2023-03-26T10:35:33.955Z,11.38
2023-03-26T10:38:14.134Z,14.75
2023-03-26T10:40:52.723Z,14.20
2023-03-26T10:44:01.186Z,11.63
2023-03-26T10:47:01.915Z,13.35
2023-03-26T10:50:16.944Z,17.90
2023-03-26T10:52:55.787Z,10.18
2023-03-26T10:55:30.028Z,16.08
2023-03-26T10:58:01.211Z,14.95
2023-03-26T11:00:31.148Z,12.70
2023-03-26T11:03:27.382Z,16.10
2023-03-26T11:06:04.293Z,14.52
2023-03-26T11:08:43.768Z,13.40
2023-03-26T11:11:24.466Z,11.00
2023-03-26T11:14:01.958Z,13.35
2023-03-26T11:16:43.638Z,13.38
2023-03-26T11:19:21.733Z,10.90
2023-03-26T11:21:55.977Z,13.27
2023-03-26T11:24:49.121Z,12.93
2023-03-26T11:30:04.204Z,14.77
2023-03-26T11:32:39.247Z,14.43
2023-03-26T11:35:11.163Z,19.02
2023-03-26T11:37:43.409Z,20.17
2023-03-26T11:40:20.248Z,17.55
2023-03-26T11:42:51.227Z,17.33
2023-03-26T11:45:24.214Z,20.52
2023-03-26T11:47:57.611Z,19.17
2023-03-26T11:50:30.596Z,20.48
2023-03-26T11:53:03.686Z,19.20
2023-03-26T11:55:33.579Z,20.67
2023-03-26T11:58:06.210Z,17.58
2023-03-26T12:03:02.701Z,21.98
2023-03-26T12:05:33.670Z,19.05
2023-03-26T12:08:04.291Z,16.73
2023-03-26T12:10:37.793Z,18.63
2023-03-26T12:13:27.862Z,20.75
2023-03-26T12:15:59.930Z,16.63
2023-03-26T12:18:29.514Z,21.80
2023-03-26T12:21:09.046Z,16.33
2023-03-26T12:23:43.691Z,19.55
2023-03-26T12:26:17.341Z,19.13
2023-03-26T12:28:47.377Z,19.73
2023-03-26T12:31:18.419Z,20.77
2023-03-26T12:33:53.006Z,22.15
2023-03-26T12:36:26.492Z,16.42
2023-03-26T12:39:17.100Z,16.65
2023-03-26T12:44:47.535Z,16.63
2023-03-26T12:44:47.650Z,13.82
2023-03-26T12:47:59.835Z,17.80
2023-03-26T12:50:16.929Z,15.27
2023-03-26T12:53:02.478Z,18.13
2023-03-26T12:55:44.130Z,18.23
2023-03-26T12:58:32.071Z,19.73
2023-03-26T13:01:07.751Z,14.93
2023-03-26T13:03:56.819Z,14.45
2023-03-26T13:06:59.457Z,17.50
2023-03-26T13:09:35.942Z,20.23
2023-03-26T13:12:17.448Z,15.20
2023-03-26T13:15:00.099Z,17.77
2023-03-26T13:17:37.291Z,15.07
2023-03-26T13:20:12.245Z,15.88
2023-03-26T13:22:48.401Z,20.95
2023-03-26T13:25:31.450Z,16.70
2023-03-26T13:28:13.132Z,16.27
2023-03-26T13:30:49.006Z,14.68
2023-03-26T13:33:31.618Z,18.33
2023-03-26T13:36:21.742Z,14.40
2023-03-26T13:39:04.569Z,15.35
2023-03-26T13:41:46.910Z,16.85
2023-03-26T13:44:23.701Z,13.45
2023-03-26T13:46:56.621Z,19.35
2023-03-26T13:49:37.028Z,16.85
2023-03-26T13:52:11.472Z,19.73
2023-03-26T13:54:48.054Z,18.23
2023-03-26T13:57:22.319Z,11.43
2023-03-26T13:59:57.439Z,15.00
2023-03-26T14:02:34.762Z,14.93
2023-03-26T14:05:08.745Z,13.10
2023-03-26T14:07:43.103Z,15.15
2023-03-26T14:10:14.510Z,14.63
2023-03-26T14:12:57.352Z,13.52
2023-03-26T14:15:31.027Z,15.48
2023-03-26T14:18:08.149Z,15.52
2023-03-26T14:21:12.520Z,14.40
2023-03-26T14:24:10.865Z,12.65
2023-03-26T14:26:56.078Z,16.83
2023-03-26T14:29:34.772Z,10.63
2023-03-26T14:32:31.350Z,11.73
2023-03-26T14:35:20.135Z,14.18
2023-03-26T14:38:08.018Z,12.50
2023-03-26T14:40:55.514Z,13.82
2023-03-26T14:43:53.693Z,19.42
2023-03-26T14:46:38.718Z,13.00
2023-03-26T14:49:30.828Z,9.57
2023-03-26T14:52:15.468Z,10.00
2023-03-26T14:54:47.242Z,12.02
2023-03-26T14:57:49.855Z,9.40
2023-03-26T15:00:41.872Z,11.50
2023-03-26T15:03:54.261Z,10.73
2023-03-26T15:07:03.754Z,9.25
2023-03-26T15:10:18.937Z,10.80
2023-03-26T15:13:10.137Z,13.10
2023-03-26T15:16:27.965Z,12.88
2023-03-26T15:19:44.063Z,7.38
2023-03-26T15:22:44.352Z,15.82
2023-03-26T15:25:54.054Z,11.48
2023-03-26T15:28:59.971Z,11.38
2023-03-26T15:32:18.919Z,8.95
2023-03-26T15:35:28.779Z,12.90
2023-03-26T15:38:44.116Z,13.27
2023-03-26T15:41:18.722Z,11.93
2023-03-26T15:44:33.009Z,7.53
2023-03-26T15:47:32.660Z,13.57
2023-03-26T15:50:12.826Z,8.55
2023-03-26T15:52:50.280Z,13.18
2023-03-26T15:55:31.260Z,10.93
2023-03-26T15:58:12.342Z,15.45
2023-03-26T16:00:55.238Z,13.07
2023-03-26T16:03:35.894Z,8.35
2023-03-26T16:06:27.906Z,13.50
2023-03-26T16:09:17.048Z,9.13
2023-03-26T16:11:56.056Z,11.20
2023-03-26T16:14:42.920Z,10.45
2023-03-26T16:17:15.099Z,10.10
2023-03-26T16:19:52.044Z,12.55
2023-03-26T16:22:43.628Z,8.23
2023-03-26T16:25:26.554Z,11.43
2023-03-26T16:28:35.629Z,7.97
2023-03-26T16:31:38.109Z,16.67
2023-03-26T16:34:28.673Z,11.48
2023-03-26T16:37:00.222Z,13.18
2023-03-26T16:39:41.678Z,10.68
2023-03-26T16:42:32.939Z,7.40
2023-03-26T16:45:13.122Z,12.10
2023-03-26T16:47:53.758Z,9.55
2023-03-26T16:50:30.014Z,9.48
2023-03-26T16:53:02.702Z,13.05
2023-03-26T16:55:41.132Z,10.15
2023-03-26T16:58:18.074Z,12.02
2023-03-26T17:00:52.442Z,11.18
2023-03-26T17:03:37.725Z,12.10
2023-03-26T17:06:23.273Z,13.95
2023-03-26T17:09:00.653Z,10.73
2023-03-26T17:11:42.562Z,11.07
2023-03-26T17:14:24.626Z,11.85
2023-03-26T17:17:10.733Z,8.88
2023-03-26T17:19:52.082Z,7.88
2023-03-26T17:22:35.116Z,10.15
2023-03-26T17:25:13.397Z,12.52
2023-03-26T17:27:50.120Z,9.30
2023-03-26T17:30:35.415Z,11.93
2023-03-26T17:33:16.382Z,10.43
2023-03-26T17:35:47.927Z,10.40
2023-03-26T17:38:53.374Z,9.68
2023-03-26T17:42:13.134Z,10.10
2023-03-26T17:44:45.632Z,10.15
2023-03-26T17:47:26.062Z,8.47
2023-03-26T17:49:59.973Z,9.93
2023-03-26T17:52:42.879Z,8.52
2023-03-26T17:57:44.260Z,14.27
2023-03-26T18:02:49.538Z,9.15
2023-03-26T18:05:19.980Z,9.45
2023-03-26T18:08:17.032Z,10.52
2023-03-26T18:11:12.371Z,8.35
2023-03-26T18:14:28.206Z,11.30
2023-03-26T18:17:00.158Z,12.35
2023-03-26T18:19:29.576Z,9.50
2023-03-26T18:21:59.343Z,14.18
2023-03-26T18:24:32.857Z,8.35
2023-03-26T18:27:04.135Z,7.90
2023-03-26T18:29:33.782Z,13.95
2023-03-26T18:32:03.642Z,10.88
2023-03-26T18:34:34.128Z,6.75
2023-03-26T18:37:16.427Z,11.02
2023-03-26T18:39:59.055Z,7.80
2023-03-26T18:42:28.355Z,9.77
2023-03-26T18:44:59.885Z,8.18
2023-03-26T18:47:31.720Z,7.70
2023-03-26T18:50:00.811Z,11.80
2023-03-26T18:52:31.284Z,7.60
2023-03-26T18:55:03.845Z,7.22
2023-03-26T18:57:32.364Z,8.60
2023-03-26T19:00:18.540Z,9.32
2023-03-26T19:02:49.846Z,7.55
2023-03-26T19:05:19.639Z,12.95
2023-03-26T19:07:48.988Z,9.85
2023-03-26T19:10:22.156Z,11.27
2023-03-26T19:12:57.348Z,8.68
2023-03-26T19:15:27.312Z,9.27
2023-03-26T19:18:03.739Z,7.53
2023-03-26T19:20:38.874Z,11.77
2023-03-26T19:23:08.782Z,18.55
2023-03-26T19:25:42.872Z,11.02
2023-03-26T19:28:18.473Z,7.75
2023-03-26T19:30:46.689Z,9.88
2023-03-26T19:33:18.340Z,8.82
2023-03-26T19:35:52.010Z,9.37
2023-03-26T19:38:23.916Z,9.63
2023-03-26T19:40:55.549Z,11.60
2023-03-26T19:43:24.279Z,10.83
2023-03-26T19:46:00.094Z,10.38
2023-03-26T19:48:45.581Z,13.55
2023-03-26T19:51:21.096Z,8.93
2023-03-26T19:53:55.083Z,12.48
2023-03-26T19:56:25.642Z,8.77
2023-03-26T19:58:54.389Z,12.40
2023-03-26T20:01:24.907Z,12.23
2023-03-26T20:03:57.720Z,10.05
2023-03-26T20:06:41.846Z,10.55
2023-03-26T20:09:11.963Z,11.70
2023-03-26T20:11:41.510Z,12.27
2023-03-26T20:14:15.173Z,12.50
2023-03-26T20:16:45.233Z,12.07
2023-03-26T20:19:14.700Z,6.40
2023-03-26T20:21:44.444Z,12.40
2023-03-26T20:24:15.100Z,10.77
2023-03-26T20:26:44.835Z,11.65
2023-03-26T20:29:13.979Z,10.52
2023-03-26T20:31:42.720Z,8.63
2023-03-26T20:34:16.852Z,12.55
2023-03-26T20:36:45.586Z,9.95
2023-03-26T20:39:14.100Z,8.93
2023-03-26T20:41:47.657Z,9.38
2023-03-26T20:44:17.908Z,11.38
2023-03-26T20:46:48.265Z,9.60
2023-03-26T20:49:17.923Z,8.98
2023-03-26T20:51:46.795Z,11.35
2023-03-26T20:54:18.054Z,6.32
2023-03-26T20:56:48.033Z,12.75
2023-03-26T20:59:22.302Z,10.70
2023-03-26T21:01:51.729Z,9.48
2023-03-26T21:04:20.383Z,8.13
2023-03-26T21:06:49.469Z,10.43
2023-03-26T21:09:23.514Z,8.88
2023-03-26T21:12:01.575Z,6.03
2023-03-26T21:14:34.386Z,12.00
2023-03-26T21:17:03.478Z,8.50
2023-03-26T21:19:32.111Z,15.90
2023-03-26T21:22:11.354Z,7.80
2023-03-26T21:24:59.957Z,10.65
2023-03-26T21:27:37.349Z,10.95
2023-03-26T21:30:13.796Z,9.90
2023-03-26T21:32:43.288Z,8.15
2023-03-26T21:35:13.326Z,11.10
2023-03-26T21:37:43.209Z,7.53
2023-03-26T21:40:16.712Z,11.02
2023-03-26T21:42:49.192Z,6.45
2023-03-26T21:45:18.617Z,6.03
2023-03-26T21:47:47.552Z,12.23
2023-03-26T21:50:20.511Z,8.77
2023-03-26T21:52:51.036Z,7.40
2023-03-26T21:55:21.543Z,9.32
2023-03-26T21:58:12.719Z,8.30
2023-03-26T22:00:51.777Z,11.10
2023-03-26T22:03:26.511Z,7.75
2023-03-26T22:05:58.921Z,10.02
2023-03-26T22:08:31.629Z,10.27
2023-03-26T22:10:59.716Z,12.23
2023-03-26T22:13:29.275Z,5.55
2023-03-26T22:15:57.628Z,8.52
2023-03-26T22:18:26.097Z,10.27
2023-03-26T22:20:55.117Z,7.55
2023-03-26T22:23:23.484Z,4.53
2023-03-26T22:25:52.190Z,12.07
2023-03-26T22:28:20.653Z,12.80
2023-03-26T22:30:50.169Z,8.45
2023-03-26T22:33:18.321Z,9.07
2023-03-26T22:35:47.076Z,8.07
2023-03-26T22:38:17.082Z,7.43
2023-03-26T22:40:45.201Z,11.50
2023-03-26T22:43:13.257Z,7.72
2023-03-26T22:45:41.357Z,11.38
2023-03-26T22:48:10.990Z,8.27
2023-03-26T22:50:39.024Z,6.38
2023-03-26T22:53:07.435Z,10.27
2023-03-26T22:55:35.512Z,13.10
2023-03-26T22:58:03.581Z,9.52
2023-03-26T23:00:32.444Z,10.55
2023-03-26T23:03:01.171Z,9.82
2023-03-26T23:05:31.005Z,12.30
2023-03-26T23:07:59.329Z,7.03
2023-03-26T23:10:30.147Z,8.27
2023-03-26T23:12:58.275Z,6.88
2023-03-26T23:15:41.545Z,8.77
2023-03-26T23:18:09.650Z,10.35
2023-03-26T23:20:40.085Z,9.48
2023-03-26T23:23:08.180Z,7.28
2023-03-26T23:25:36.205Z,9.05
2023-03-26T23:28:04.828Z,8.10
2023-03-26T23:30:34.150Z,7.68
2023-03-26T23:33:02.200Z,8.98
2023-03-26T23:35:30.329Z,7.97
2023-03-26T23:38:02.247Z,5.22
2023-03-26T23:40:30.275Z,7.55
2023-03-26T23:42:58.303Z,8.88
2023-03-26T23:45:26.472Z,11.93
2023-03-26T23:47:54.532Z,13.70
2023-03-26T23:50:23.558Z,6.78
2023-03-26T23:52:51.910Z,7.00
2023-03-26T23:55:21.315Z,8.90
2023-03-26T23:57:49.339Z,7.60
